sensor_id;sensor_type;location;lat;lon;timestamp;P1;durP1;ratioP1;P2;durP2;ratioP2
78555;SDS011;67851;51.354;7.744;2023-04-03T00:00:09;12.25;;;3.65;;
78555;SDS011;67851;51.354;7.744;2023-04-03T00:02:35;7.10;;;3.53;;
78555;SDS011;67851;51.354;7.744;2023-04-03T00:05:00;6.15;;;3.45;;
78555;SDS011;67851;51.354;7.744;2023-04-03T00:07:26;9.48;;;4.10;;
78555;SDS011;67851;51.354;7.744;2023-04-03T00:09:52;6.82;;;3.63;;
78555;SDS011;67851;51.354;7.744;2023-04-03T00:12:17;5.47;;;3.67;;
78555;SDS011;67851;51.354;7.744;2023-04-03T00:14:43;8.32;;;3.53;;
78555;SDS011;67851;51.354;7.744;2023-04-03T00:17:08;8.30;;;4.50;;
78555;SDS011;67851;51.354;7.744;2023-04-03T00:19:34;11.32;;;4.00;;
78555;SDS011;67851;51.354;7.744;2023-04-03T00:22:00;7.88;;;3.83;;
78555;SDS011;67851;51.354;7.744;2023-04-03T00:24:25;7.07;;;3.50;;
78555;SDS011;67851;51.354;7.744;2023-04-03T00:26:51;6.30;;;3.83;;
78555;SDS011;67851;51.354;7.744;2023-04-03T00:29:16;8.13;;;3.67;;
78555;SDS011;67851;51.354;7.744;2023-04-03T00:31:42;6.78;;;3.85;;
78555;SDS011;67851;51.354;7.744;2023-04-03T00:34:08;11.23;;;5.72;;
78555;SDS011;67851;51.354;7.744;2023-04-03T00:36:33;10.45;;;3.90;;
78555;SDS011;67851;51.354;7.744;2023-04-03T00:38:59;9.07;;;3.08;;
78555;SDS011;67851;51.354;7.744;2023-04-03T00:41:25;7.10;;;3.08;;
78555;SDS011;67851;51.354;7.744;2023-04-03T00:43:50;4.95;;;2.85;;
78555;SDS011;67851;51.354;7.744;2023-04-03T00:46:16;6.07;;;2.63;;
78555;SDS011;67851;51.354;7.744;2023-04-03T00:48:42;5.22;;;2.55;;
78555;SDS011;67851;51.354;7.744;2023-04-03T00:51:13;5.50;;;2.60;;
78555;SDS011;67851;51.354;7.744;2023-04-03T00:54:01;6.47;;;2.33;;
78555;SDS011;67851;51.354;7.744;2023-04-03T00:56:28;7.68;;;2.72;;
78555;SDS011;67851;51.354;7.744;2023-04-03T00:59:02;4.45;;;2.60;;
78555;SDS011;67851;51.354;7.744;2023-04-03T01:01:30;5.95;;;2.50;;
78555;SDS011;67851;51.354;7.744;2023-04-03T01:03:58;8.90;;;2.45;;
78555;SDS011;67851;51.354;7.744;2023-04-03T01:06:29;4.63;;;3.15;;
78555;SDS011;67851;51.354;7.744;2023-04-03T01:09:03;7.18;;;2.85;;
78555;SDS011;67851;51.354;7.744;2023-04-03T01:11:30;10.98;;;2.55;;
78555;SDS011;67851;51.354;7.744;2023-04-03T01:13:55;6.93;;;2.65;;
78555;SDS011;67851;51.354;7.744;2023-04-03T01:16:23;6.40;;;2.42;;
78555;SDS011;67851;51.354;7.744;2023-04-03T01:18:48;4.85;;;2.22;;
78555;SDS011;67851;51.354;7.744;2023-04-03T01:24:31;4.22;;;2.35;;
78555;SDS011;67851;51.354;7.744;2023-04-03T01:26:59;16.98;;;2.30;;
78555;SDS011;67851;51.354;7.744;2023-04-03T01:29:26;6.30;;;3.03;;
78555;SDS011;67851;51.354;7.744;2023-04-03T01:31:59;4.80;;;2.20;;
78555;SDS011;67851;51.354;7.744;2023-04-03T01:34:26;6.05;;;2.17;;
78555;SDS011;67851;51.354;7.744;2023-04-03T01:36:52;5.65;;;2.42;;
78555;SDS011;67851;51.354;7.744;2023-04-03T01:39:19;6.82;;;2.40;;
78555;SDS011;67851;51.354;7.744;2023-04-03T01:41:46;11.98;;;3.25;;
78555;SDS011;67851;51.354;7.744;2023-04-03T01:44:19;9.60;;;2.55;;
78555;SDS011;67851;51.354;7.744;2023-04-03T01:46:45;8.95;;;3.35;;
78555;SDS011;67851;51.354;7.744;2023-04-03T01:49:11;4.25;;;2.50;;
78555;SDS011;67851;51.354;7.744;2023-04-03T01:51:37;8.18;;;2.53;;
78555;SDS011;67851;51.354;7.744;2023-04-03T01:54:03;5.57;;;2.47;;
78555;SDS011;67851;51.354;7.744;2023-04-03T01:56:29;9.30;;;3.50;;
78555;SDS011;67851;51.354;7.744;2023-04-03T01:58:55;8.43;;;3.00;;
78555;SDS011;67851;51.354;7.744;2023-04-03T02:01:21;6.55;;;2.53;;
78555;SDS011;67851;51.354;7.744;2023-04-03T02:03:46;7.03;;;3.67;;
78555;SDS011;67851;51.354;7.744;2023-04-03T02:06:12;5.72;;;2.78;;
78555;SDS011;67851;51.354;7.744;2023-04-03T02:08:37;5.65;;;3.35;;
78555;SDS011;67851;51.354;7.744;2023-04-03T02:11:05;10.75;;;3.03;;
78555;SDS011;67851;51.354;7.744;2023-04-03T02:13:32;8.15;;;3.10;;
78555;SDS011;67851;51.354;7.744;2023-04-03T02:15:58;9.50;;;3.72;;
78555;SDS011;67851;51.354;7.744;2023-04-03T02:18:24;9.23;;;3.65;;
78555;SDS011;67851;51.354;7.744;2023-04-03T02:20:50;5.80;;;2.88;;
78555;SDS011;67851;51.354;7.744;2023-04-03T02:23:15;10.20;;;3.40;;
78555;SDS011;67851;51.354;7.744;2023-04-03T02:25:41;7.68;;;3.05;;
78555;SDS011;67851;51.354;7.744;2023-04-03T02:28:09;8.50;;;3.40;;
78555;SDS011;67851;51.354;7.744;2023-04-03T02:30:35;6.88;;;3.42;;
78555;SDS011;67851;51.354;7.744;2023-04-03T02:33:01;6.38;;;2.78;;
78555;SDS011;67851;51.354;7.744;2023-04-03T02:35:26;10.85;;;3.35;;
78555;SDS011;67851;51.354;7.744;2023-04-03T02:37:54;10.98;;;3.15;;
78555;SDS011;67851;51.354;7.744;2023-04-03T02:40:21;9.43;;;3.28;;
78555;SDS011;67851;51.354;7.744;2023-04-03T02:42:47;6.18;;;3.22;;
78555;SDS011;67851;51.354;7.744;2023-04-03T02:45:13;9.45;;;3.30;;
78555;SDS011;67851;51.354;7.744;2023-04-03T02:47:38;5.13;;;2.78;;
78555;SDS011;67851;51.354;7.744;2023-04-03T02:50:04;6.30;;;3.28;;
78555;SDS011;67851;51.354;7.744;2023-04-03T02:52:31;7.47;;;3.60;;
78555;SDS011;67851;51.354;7.744;2023-04-03T02:54:57;10.20;;;3.45;;
78555;SDS011;67851;51.354;7.744;2023-04-03T02:57:22;5.43;;;3.40;;
78555;SDS011;67851;51.354;7.744;2023-04-03T02:59:48;9.25;;;3.13;;
78555;SDS011;67851;51.354;7.744;2023-04-03T03:02:14;7.45;;;3.08;;
78555;SDS011;67851;51.354;7.744;2023-04-03T03:04:39;6.03;;;2.83;;
78555;SDS011;67851;51.354;7.744;2023-04-03T03:07:05;4.95;;;3.03;;
78555;SDS011;67851;51.354;7.744;2023-04-03T03:09:31;8.75;;;3.33;;
78555;SDS011;67851;51.354;7.744;2023-04-03T03:11:57;9.48;;;3.65;;
78555;SDS011;67851;51.354;7.744;2023-04-03T03:14:23;6.03;;;3.15;;
78555;SDS011;67851;51.354;7.744;2023-04-03T03:16:52;16.48;;;3.72;;
78555;SDS011;67851;51.354;7.744;2023-04-03T03:19:17;9.73;;;3.80;;
78555;SDS011;67851;51.354;7.744;2023-04-03T03:21:43;11.30;;;3.80;;
78555;SDS011;67851;51.354;7.744;2023-04-03T03:24:09;8.38;;;3.40;;
78555;SDS011;67851;51.354;7.744;2023-04-03T03:26:34;7.55;;;2.92;;
78555;SDS011;67851;51.354;7.744;2023-04-03T03:29:01;9.23;;;3.15;;
78555;SDS011;67851;51.354;7.744;2023-04-03T03:31:27;9.73;;;3.65;;
78555;SDS011;67851;51.354;7.744;2023-04-03T03:33:53;7.30;;;2.90;;
78555;SDS011;67851;51.354;7.744;2023-04-03T03:36:18;6.07;;;3.20;;
78555;SDS011;67851;51.354;7.744;2023-04-03T03:38:44;5.47;;;3.60;;
78555;SDS011;67851;51.354;7.744;2023-04-03T03:41:10;11.63;;;3.63;;
78555;SDS011;67851;51.354;7.744;2023-04-03T03:43:36;10.93;;;3.85;;
78555;SDS011;67851;51.354;7.744;2023-04-03T03:46:03;7.70;;;3.83;;
78555;SDS011;67851;51.354;7.744;2023-04-03T03:48:29;13.07;;;4.32;;
78555;SDS011;67851;51.354;7.744;2023-04-03T03:50:55;13.02;;;4.65;;
78555;SDS011;67851;51.354;7.744;2023-04-03T03:53:25;12.57;;;4.57;;
78555;SDS011;67851;51.354;7.744;2023-04-03T03:55:54;11.57;;;4.22;;
78555;SDS011;67851;51.354;7.744;2023-04-03T03:58:22;8.63;;;3.63;;
78555;SDS011;67851;51.354;7.744;2023-04-03T04:00:48;13.32;;;3.83;;
78555;SDS011;67851;51.354;7.744;2023-04-03T04:03:14;14.38;;;3.97;;
78555;SDS011;67851;51.354;7.744;2023-04-03T04:05:41;9.05;;;3.35;;
78555;SDS011;67851;51.354;7.744;2023-04-03T04:08:06;6.45;;;3.50;;
78555;SDS011;67851;51.354;7.744;2023-04-03T04:10:33;7.47;;;3.22;;
78555;SDS011;67851;51.354;7.744;2023-04-03T04:12:59;10.88;;;3.45;;
78555;SDS011;67851;51.354;7.744;2023-04-03T04:15:27;8.80;;;3.65;;
78555;SDS011;67851;51.354;7.744;2023-04-03T04:17:53;11.15;;;3.90;;
78555;SDS011;67851;51.354;7.744;2023-04-03T04:20:21;10.75;;;4.00;;
78555;SDS011;67851;51.354;7.744;2023-04-03T04:22:48;11.45;;;3.92;;
78555;SDS011;67851;51.354;7.744;2023-04-03T04:25:14;15.20;;;4.22;;
78555;SDS011;67851;51.354;7.744;2023-04-03T04:27:40;7.90;;;4.00;;
78555;SDS011;67851;51.354;7.744;2023-04-03T04:30:07;8.30;;;3.95;;
78555;SDS011;67851;51.354;7.744;2023-04-03T04:32:33;10.93;;;3.53;;
78555;SDS011;67851;51.354;7.744;2023-04-03T04:34:59;16.05;;;3.80;;
78555;SDS011;67851;51.354;7.744;2023-04-03T04:37:25;8.80;;;3.80;;
78555;SDS011;67851;51.354;7.744;2023-04-03T04:39:52;10.25;;;3.70;;
78555;SDS011;67851;51.354;7.744;2023-04-03T04:42:17;8.93;;;3.88;;
78555;SDS011;67851;51.354;7.744;2023-04-03T04:44:45;19.48;;;5.97;;
78555;SDS011;67851;51.354;7.744;2023-04-03T04:47:13;17.35;;;5.90;;
78555;SDS011;67851;51.354;7.744;2023-04-03T04:49:39;9.02;;;4.63;;
78555;SDS011;67851;51.354;7.744;2023-04-03T04:52:05;6.68;;;3.55;;
78555;SDS011;67851;51.354;7.744;2023-04-03T04:54:31;7.05;;;3.95;;
78555;SDS011;67851;51.354;7.744;2023-04-03T04:56:57;18.85;;;4.15;;
78555;SDS011;67851;51.354;7.744;2023-04-03T04:59:23;13.27;;;3.42;;
78555;SDS011;67851;51.354;7.744;2023-04-03T05:01:51;14.32;;;4.13;;
78555;SDS011;67851;51.354;7.744;2023-04-03T05:04:17;8.55;;;2.97;;
78555;SDS011;67851;51.354;7.744;2023-04-03T05:06:46;9.77;;;3.47;;
78555;SDS011;67851;51.354;7.744;2023-04-03T05:09:16;9.15;;;3.47;;
78555;SDS011;67851;51.354;7.744;2023-04-03T05:11:45;11.60;;;5.95;;
78555;SDS011;67851;51.354;7.744;2023-04-03T05:14:13;15.18;;;5.18;;
78555;SDS011;67851;51.354;7.744;2023-04-03T05:16:40;10.70;;;3.78;;
78555;SDS011;67851;51.354;7.744;2023-04-03T05:19:06;12.77;;;3.72;;
78555;SDS011;67851;51.354;7.744;2023-04-03T05:21:32;10.43;;;4.10;;
78555;SDS011;67851;51.354;7.744;2023-04-03T05:24:01;13.98;;;3.83;;
78555;SDS011;67851;51.354;7.744;2023-04-03T05:26:30;8.93;;;4.05;;
78555;SDS011;67851;51.354;7.744;2023-04-03T05:28:57;10.18;;;4.38;;
78555;SDS011;67851;51.354;7.744;2023-04-03T05:31:23;13.80;;;4.70;;
78555;SDS011;67851;51.354;7.744;2023-04-03T05:33:49;13.13;;;5.13;;
78555;SDS011;67851;51.354;7.744;2023-04-03T05:36:16;11.90;;;5.15;;
78555;SDS011;67851;51.354;7.744;2023-04-03T05:38:46;19.58;;;6.10;;
78555;SDS011;67851;51.354;7.744;2023-04-03T05:41:11;18.55;;;7.80;;
78555;SDS011;67851;51.354;7.744;2023-04-03T05:43:38;17.70;;;6.35;;
78555;SDS011;67851;51.354;7.744;2023-04-03T05:46:12;21.17;;;9.65;;
78555;SDS011;67851;51.354;7.744;2023-04-03T05:48:41;16.35;;;8.38;;
78555;SDS011;67851;51.354;7.744;2023-04-03T05:51:18;19.98;;;9.13;;
78555;SDS011;67851;51.354;7.744;2023-04-03T05:53:48;15.82;;;6.50;;
78555;SDS011;67851;51.354;7.744;2023-04-03T05:56:51;9.68;;;4.70;;
78555;SDS011;67851;51.354;7.744;2023-04-03T05:59:20;15.40;;;5.72;;
78555;SDS011;67851;51.354;7.744;2023-04-03T06:01:48;13.98;;;4.45;;
78555;SDS011;67851;51.354;7.744;2023-04-03T06:04:14;13.32;;;4.60;;
78555;SDS011;67851;51.354;7.744;2023-04-03T06:06:44;10.93;;;4.47;;
78555;SDS011;67851;51.354;7.744;2023-04-03T06:09:11;7.95;;;4.07;;
78555;SDS011;67851;51.354;7.744;2023-04-03T06:11:37;12.50;;;4.30;;
78555;SDS011;67851;51.354;7.744;2023-04-03T06:14:04;7.43;;;3.92;;
78555;SDS011;67851;51.354;7.744;2023-04-03T06:16:29;11.88;;;4.70;;
78555;SDS011;67851;51.354;7.744;2023-04-03T06:18:55;13.85;;;4.53;;
78555;SDS011;67851;51.354;7.744;2023-04-03T06:21:22;12.35;;;4.30;;
78555;SDS011;67851;51.354;7.744;2023-04-03T06:23:47;7.78;;;3.67;;
78555;SDS011;67851;51.354;7.744;2023-04-03T06:26:13;13.98;;;4.13;;
78555;SDS011;67851;51.354;7.744;2023-04-03T06:28:38;10.50;;;3.60;;
78555;SDS011;67851;51.354;7.744;2023-04-03T06:31:04;14.70;;;3.83;;
78555;SDS011;67851;51.354;7.744;2023-04-03T06:33:29;10.18;;;3.80;;
78555;SDS011;67851;51.354;7.744;2023-04-03T06:35:56;8.45;;;3.47;;
78555;SDS011;67851;51.354;7.744;2023-04-03T06:38:23;13.27;;;3.60;;
78555;SDS011;67851;51.354;7.744;2023-04-03T06:40:48;10.77;;;3.90;;
78555;SDS011;67851;51.354;7.744;2023-04-03T06:43:14;9.52;;;3.38;;
78555;SDS011;67851;51.354;7.744;2023-04-03T06:45:40;9.23;;;3.58;;
78555;SDS011;67851;51.354;7.744;2023-04-03T06:48:05;12.43;;;3.90;;
78555;SDS011;67851;51.354;7.744;2023-04-03T06:50:31;8.50;;;3.22;;
78555;SDS011;67851;51.354;7.744;2023-04-03T06:52:57;8.38;;;3.17;;
78555;SDS011;67851;51.354;7.744;2023-04-03T06:55:22;9.98;;;3.35;;
78555;SDS011;67851;51.354;7.744;2023-04-03T06:57:48;10.15;;;4.00;;
78555;SDS011;67851;51.354;7.744;2023-04-03T07:00:13;12.82;;;3.22;;
78555;SDS011;67851;51.354;7.744;2023-04-03T07:02:39;5.50;;;2.78;;
78555;SDS011;67851;51.354;7.744;2023-04-03T07:05:06;8.00;;;2.97;;
78555;SDS011;67851;51.354;7.744;2023-04-03T07:07:49;8.88;;;3.47;;
78555;SDS011;67851;51.354;7.744;2023-04-03T07:10:15;9.00;;;3.10;;
78555;SDS011;67851;51.354;7.744;2023-04-03T07:12:41;11.98;;;2.85;;
78555;SDS011;67851;51.354;7.744;2023-04-03T07:15:07;8.60;;;2.72;;
78555;SDS011;67851;51.354;7.744;2023-04-03T07:17:33;7.72;;;2.90;;
78555;SDS011;67851;51.354;7.744;2023-04-03T07:20:01;8.52;;;2.80;;
78555;SDS011;67851;51.354;7.744;2023-04-03T07:22:30;11.10;;;3.42;;
78555;SDS011;67851;51.354;7.744;2023-04-03T07:24:56;9.27;;;2.55;;
78555;SDS011;67851;51.354;7.744;2023-04-03T07:27:22;9.48;;;2.83;;
78555;SDS011;67851;51.354;7.744;2023-04-03T07:29:47;7.93;;;2.70;;
78555;SDS011;67851;51.354;7.744;2023-04-03T07:32:15;9.75;;;2.53;;
78555;SDS011;67851;51.354;7.744;2023-04-03T07:34:41;6.75;;;2.65;;
78555;SDS011;67851;51.354;7.744;2023-04-03T07:37:07;11.60;;;2.75;;
78555;SDS011;67851;51.354;7.744;2023-04-03T07:39:34;8.30;;;2.10;;
78555;SDS011;67851;51.354;7.744;2023-04-03T07:41:59;10.90;;;2.65;;
78555;SDS011;67851;51.354;7.744;2023-04-03T07:44:25;8.68;;;2.50;;
78555;SDS011;67851;51.354;7.744;2023-04-03T07:46:51;6.20;;;2.22;;
78555;SDS011;67851;51.354;7.744;2023-04-03T07:49:17;7.10;;;2.30;;
78555;SDS011;67851;51.354;7.744;2023-04-03T07:51:48;8.40;;;2.40;;
78555;SDS011;67851;51.354;7.744;2023-04-03T07:54:14;10.15;;;2.40;;
78555;SDS011;67851;51.354;7.744;2023-04-03T07:56:40;5.55;;;2.10;;
78555;SDS011;67851;51.354;7.744;2023-04-03T07:59:08;9.50;;;2.78;;
78555;SDS011;67851;51.354;7.744;2023-04-03T08:01:34;5.40;;;1.92;;
78555;SDS011;67851;51.354;7.744;2023-04-03T08:04:00;14.05;;;2.38;;
78555;SDS011;67851;51.354;7.744;2023-04-03T08:06:26;7.00;;;2.13;;
78555;SDS011;67851;51.354;7.744;2023-04-03T08:08:51;11.70;;;3.03;;
78555;SDS011;67851;51.354;7.744;2023-04-03T08:11:17;7.47;;;1.90;;
78555;SDS011;67851;51.354;7.744;2023-04-03T08:13:44;10.05;;;2.22;;
78555;SDS011;67851;51.354;7.744;2023-04-03T08:16:16;5.38;;;2.00;;
78555;SDS011;67851;51.354;7.744;2023-04-03T08:18:43;6.68;;;2.10;;
78555;SDS011;67851;51.354;7.744;2023-04-03T08:21:10;6.43;;;1.80;;
78555;SDS011;67851;51.354;7.744;2023-04-03T08:23:36;5.63;;;1.83;;
78555;SDS011;67851;51.354;7.744;2023-04-03T08:26:12;5.93;;;1.70;;
78555;SDS011;67851;51.354;7.744;2023-04-03T08:28:39;6.95;;;2.00;;
78555;SDS011;67851;51.354;7.744;2023-04-03T08:31:06;5.28;;;1.92;;
78555;SDS011;67851;51.354;7.744;2023-04-03T08:33:36;8.32;;;2.20;;
78555;SDS011;67851;51.354;7.744;2023-04-03T08:36:05;5.22;;;2.10;;
78555;SDS011;67851;51.354;7.744;2023-04-03T08:38:32;4.90;;;1.50;;
78555;SDS011;67851;51.354;7.744;2023-04-03T08:41:02;5.18;;;2.03;;
78555;SDS011;67851;51.354;7.744;2023-04-03T08:43:40;6.00;;;1.80;;
78555;SDS011;67851;51.354;7.744;2023-04-03T08:48:41;4.32;;;1.73;;
78555;SDS011;67851;51.354;7.744;2023-04-03T08:51:14;4.95;;;1.90;;
78555;SDS011;67851;51.354;7.744;2023-04-03T08:53:42;8.70;;;2.97;;
78555;SDS011;67851;51.354;7.744;2023-04-03T08:56:11;9.50;;;2.50;;
78555;SDS011;67851;51.354;7.744;2023-04-03T08:58:52;3.15;;;1.42;;
78555;SDS011;67851;51.354;7.744;2023-04-03T09:01:23;5.15;;;2.05;;
78555;SDS011;67851;51.354;7.744;2023-04-03T09:03:55;2.72;;;0.98;;
78555;SDS011;67851;51.354;7.744;2023-04-03T09:06:22;3.08;;;1.40;;
78555;SDS011;67851;51.354;7.744;2023-04-03T09:12:06;1.30;;;0.82;;
78555;SDS011;67851;51.354;7.744;2023-04-03T09:14:57;2.92;;;1.13;;
78555;SDS011;67851;51.354;7.744;2023-04-03T09:23:00;2.17;;;0.80;;
78555;SDS011;67851;51.354;7.744;2023-04-03T09:25:31;8.57;;;1.38;;
78555;SDS011;67851;51.354;7.744;2023-04-03T09:27:59;3.50;;;1.15;;
78555;SDS011;67851;51.354;7.744;2023-04-03T09:30:26;5.35;;;1.13;;
78555;SDS011;67851;51.354;7.744;2023-04-03T09:32:53;2.25;;;1.08;;
78555;SDS011;67851;51.354;7.744;2023-04-03T09:37:48;3.05;;;1.05;;
78555;SDS011;67851;51.354;7.744;2023-04-03T09:40:30;2.65;;;0.95;;
78555;SDS011;67851;51.354;7.744;2023-04-03T09:43:21;2.75;;;1.00;;
78555;SDS011;67851;51.354;7.744;2023-04-03T09:45:50;2.33;;;1.00;;
78555;SDS011;67851;51.354;7.744;2023-04-03T09:48:24;1.90;;;0.80;;
78555;SDS011;67851;51.354;7.744;2023-04-03T09:53:26;2.20;;;0.90;;
78555;SDS011;67851;51.354;7.744;2023-04-03T09:56:18;2.97;;;1.10;;
78555;SDS011;67851;51.354;7.744;2023-04-03T09:59:12;2.53;;;1.02;;
78555;SDS011;67851;51.354;7.744;2023-04-03T10:01:39;2.55;;;1.05;;
78555;SDS011;67851;51.354;7.744;2023-04-03T10:04:11;1.40;;;0.80;;
78555;SDS011;67851;51.354;7.744;2023-04-03T10:06:39;1.90;;;0.60;;
78555;SDS011;67851;51.354;7.744;2023-04-03T10:14:34;10.30;;;1.40;;
78555;SDS011;67851;51.354;7.744;2023-04-03T10:17:03;2.25;;;0.90;;
78555;SDS011;67851;51.354;7.744;2023-04-03T10:19:44;4.65;;;0.90;;
78555;SDS011;67851;51.354;7.744;2023-04-03T10:22:32;3.72;;;1.23;;
78555;SDS011;67851;51.354;7.744;2023-04-03T10:25:21;3.38;;;1.20;;
78555;SDS011;67851;51.354;7.744;2023-04-03T10:38:18;6.30;;;1.10;;
78555;SDS011;67851;51.354;7.744;2023-04-03T10:41:00;2.55;;;0.90;;
78555;SDS011;67851;51.354;7.744;2023-04-03T10:43:48;2.25;;;0.80;;
78555;SDS011;67851;51.354;7.744;2023-04-03T10:46:41;2.67;;;1.10;;
78555;SDS011;67851;51.354;7.744;2023-04-03T10:49:19;2.45;;;1.10;;
78555;SDS011;67851;51.354;7.744;2023-04-03T10:51:47;4.55;;;1.27;;
78555;SDS011;67851;51.354;7.744;2023-04-03T10:59:13;2.55;;;1.20;;
78555;SDS011;67851;51.354;7.744;2023-04-03T11:01:44;5.90;;;1.50;;
78555;SDS011;67851;51.354;7.744;2023-04-03T11:04:11;3.67;;;1.15;;
78555;SDS011;67851;51.354;7.744;2023-04-03T11:06:46;3.30;;;1.30;;
78555;SDS011;67851;51.354;7.744;2023-04-03T11:09:23;4.45;;;1.33;;
78555;SDS011;67851;51.354;7.744;2023-04-03T11:11:53;3.25;;;1.05;;
78555;SDS011;67851;51.354;7.744;2023-04-03T11:14:24;3.10;;;1.15;;
78555;SDS011;67851;51.354;7.744;2023-04-03T11:17:12;3.22;;;1.27;;
78555;SDS011;67851;51.354;7.744;2023-04-03T11:20:03;2.67;;;1.15;;
78555;SDS011;67851;51.354;7.744;2023-04-03T11:22:43;1.98;;;0.63;;
78555;SDS011;67851;51.354;7.744;2023-04-03T11:27:56;2.15;;;1.00;;
78555;SDS011;67851;51.354;7.744;2023-04-03T11:30:31;5.55;;;1.50;;
78555;SDS011;67851;51.354;7.744;2023-04-03T11:35:58;2.67;;;1.10;;
78555;SDS011;67851;51.354;7.744;2023-04-03T11:38:27;2.35;;;1.00;;
78555;SDS011;67851;51.354;7.744;2023-04-03T11:40:55;3.95;;;1.17;;
78555;SDS011;67851;51.354;7.744;2023-04-03T11:46:10;2.88;;;1.40;;
78555;SDS011;67851;51.354;7.744;2023-04-03T11:53:41;4.93;;;1.40;;
78555;SDS011;67851;51.354;7.744;2023-04-03T11:59:14;5.55;;;1.35;;
78555;SDS011;67851;51.354;7.744;2023-04-03T12:01:47;1.40;;;0.80;;
78555;SDS011;67851;51.354;7.744;2023-04-03T12:04:13;4.07;;;1.10;;
78555;SDS011;67851;51.354;7.744;2023-04-03T12:09:28;1.45;;;0.80;;
78555;SDS011;67851;51.354;7.744;2023-04-03T12:14:54;3.10;;;1.08;;
78555;SDS011;67851;51.354;7.744;2023-04-03T12:17:22;4.05;;;1.40;;
78555;SDS011;67851;51.354;7.744;2023-04-03T12:19:51;3.38;;;1.17;;
78555;SDS011;67851;51.354;7.744;2023-04-03T12:22:17;5.65;;;1.70;;
78555;SDS011;67851;51.354;7.744;2023-04-03T12:24:52;5.03;;;1.30;;
78555;SDS011;67851;51.354;7.744;2023-04-03T12:35:14;2.65;;;1.13;;
78555;SDS011;67851;51.354;7.744;2023-04-03T12:40:24;2.53;;;1.40;;
78555;SDS011;67851;51.354;7.744;2023-04-03T12:48:26;3.85;;;1.42;;
78555;SDS011;67851;51.354;7.744;2023-04-03T12:50:55;3.55;;;1.73;;
78555;SDS011;67851;51.354;7.744;2023-04-03T12:53:36;5.32;;;1.48;;
78555;SDS011;67851;51.354;7.744;2023-04-03T12:56:23;5.35;;;1.42;;
78555;SDS011;67851;51.354;7.744;2023-04-03T12:58:52;2.92;;;1.17;;
78555;SDS011;67851;51.354;7.744;2023-04-03T13:01:28;3.05;;;1.20;;
78555;SDS011;67851;51.354;7.744;2023-04-03T13:03:55;3.40;;;1.00;;
78555;SDS011;67851;51.354;7.744;2023-04-03T13:06:22;3.83;;;1.20;;
78555;SDS011;67851;51.354;7.744;2023-04-03T13:09:03;6.82;;;1.40;;
78555;SDS011;67851;51.354;7.744;2023-04-03T13:11:33;4.07;;;1.00;;
78555;SDS011;67851;51.354;7.744;2023-04-03T13:14:03;3.55;;;1.73;;
78555;SDS011;67851;51.354;7.744;2023-04-03T13:16:39;2.80;;;1.20;;
78555;SDS011;67851;51.354;7.744;2023-04-03T13:19:06;4.88;;;1.65;;
78555;SDS011;67851;51.354;7.744;2023-04-03T13:21:39;3.78;;;1.58;;
78555;SDS011;67851;51.354;7.744;2023-04-03T13:24:05;2.88;;;1.55;;
78555;SDS011;67851;51.354;7.744;2023-04-03T13:26:34;3.28;;;1.30;;
78555;SDS011;67851;51.354;7.744;2023-04-03T13:29:17;3.33;;;1.30;;
78555;SDS011;67851;51.354;7.744;2023-04-03T13:31:55;3.63;;;1.27;;
78555;SDS011;67851;51.354;7.744;2023-04-03T13:34:23;3.00;;;1.30;;
78555;SDS011;67851;51.354;7.744;2023-04-03T13:41:47;5.38;;;1.23;;
78555;SDS011;67851;51.354;7.744;2023-04-03T13:46:53;5.78;;;1.73;;
78555;SDS011;67851;51.354;7.744;2023-04-03T13:49:31;7.40;;;1.70;;
78555;SDS011;67851;51.354;7.744;2023-04-03T13:54:47;3.88;;;1.40;;
78555;SDS011;67851;51.354;7.744;2023-04-03T13:57:15;4.63;;;1.33;;
78555;SDS011;67851;51.354;7.744;2023-04-03T13:59:41;2.88;;;1.20;;
78555;SDS011;67851;51.354;7.744;2023-04-03T14:02:30;8.02;;;1.85;;
78555;SDS011;67851;51.354;7.744;2023-04-03T14:04:56;6.93;;;1.70;;
78555;SDS011;67851;51.354;7.744;2023-04-03T14:07:26;4.22;;;1.38;;
78555;SDS011;67851;51.354;7.744;2023-04-03T14:09:53;2.90;;;1.20;;
78555;SDS011;67851;51.354;7.744;2023-04-03T14:14:53;3.08;;;1.33;;
78555;SDS011;67851;51.354;7.744;2023-04-03T14:17:20;4.45;;;1.30;;
78555;SDS011;67851;51.354;7.744;2023-04-03T14:19:49;5.75;;;1.30;;
78555;SDS011;67851;51.354;7.744;2023-04-03T14:22:20;2.70;;;1.17;;
78555;SDS011;67851;51.354;7.744;2023-04-03T14:24:47;6.05;;;1.23;;
78555;SDS011;67851;51.354;7.744;2023-04-03T14:27:15;3.75;;;1.20;;
78555;SDS011;67851;51.354;7.744;2023-04-03T14:29:43;3.63;;;1.60;;
78555;SDS011;67851;51.354;7.744;2023-04-03T14:32:13;3.28;;;1.20;;
78555;SDS011;67851;51.354;7.744;2023-04-03T14:34:41;5.18;;;1.42;;
78555;SDS011;67851;51.354;7.744;2023-04-03T14:37:12;5.30;;;1.50;;
78555;SDS011;67851;51.354;7.744;2023-04-03T14:39:39;10.90;;;1.83;;
78555;SDS011;67851;51.354;7.744;2023-04-03T14:42:06;2.90;;;1.00;;
78555;SDS011;67851;51.354;7.744;2023-04-03T14:44:34;5.15;;;1.92;;
78555;SDS011;67851;51.354;7.744;2023-04-03T14:47:00;4.57;;;1.50;;
78555;SDS011;67851;51.354;7.744;2023-04-03T14:49:29;7.30;;;1.50;;
78555;SDS011;67851;51.354;7.744;2023-04-03T14:51:55;3.50;;;1.42;;
78555;SDS011;67851;51.354;7.744;2023-04-03T14:54:22;4.53;;;1.17;;
78555;SDS011;67851;51.354;7.744;2023-04-03T14:56:53;5.78;;;1.50;;
78555;SDS011;67851;51.354;7.744;2023-04-03T14:59:21;2.83;;;1.20;;
78555;SDS011;67851;51.354;7.744;2023-04-03T15:01:47;4.47;;;1.88;;
78555;SDS011;67851;51.354;7.744;2023-04-03T15:04:13;4.70;;;1.55;;
78555;SDS011;67851;51.354;7.744;2023-04-03T15:06:43;3.85;;;1.30;;
78555;SDS011;67851;51.354;7.744;2023-04-03T15:09:20;22.73;;;3.45;;
78555;SDS011;67851;51.354;7.744;2023-04-03T15:11:48;12.45;;;1.92;;
78555;SDS011;67851;51.354;7.744;2023-04-03T15:14:16;5.07;;;1.80;;
78555;SDS011;67851;51.354;7.744;2023-04-03T15:16:41;2.80;;;1.50;;
78555;SDS011;67851;51.354;7.744;2023-04-03T15:19:07;4.53;;;1.67;;
78555;SDS011;67851;51.354;7.744;2023-04-03T15:21:32;3.03;;;1.58;;
78555;SDS011;67851;51.354;7.744;2023-04-03T15:23:58;5.10;;;1.63;;
78555;SDS011;67851;51.354;7.744;2023-04-03T15:26:24;4.53;;;1.40;;
78555;SDS011;67851;51.354;7.744;2023-04-03T15:28:50;3.90;;;1.42;;
78555;SDS011;67851;51.354;7.744;2023-04-03T15:31:16;7.95;;;1.88;;
78555;SDS011;67851;51.354;7.744;2023-04-03T15:33:42;4.57;;;1.75;;
78555;SDS011;67851;51.354;7.744;2023-04-03T15:36:08;6.47;;;2.33;;
78555;SDS011;67851;51.354;7.744;2023-04-03T15:38:34;5.60;;;1.83;;
78555;SDS011;67851;51.354;7.744;2023-04-03T15:41:00;4.55;;;1.83;;
78555;SDS011;67851;51.354;7.744;2023-04-03T15:43:25;4.15;;;1.60;;
78555;SDS011;67851;51.354;7.744;2023-04-03T15:45:51;6.55;;;1.90;;
78555;SDS011;67851;51.354;7.744;2023-04-03T15:48:17;5.90;;;1.83;;
78555;SDS011;67851;51.354;7.744;2023-04-03T15:50:43;4.90;;;1.40;;
78555;SDS011;67851;51.354;7.744;2023-04-03T15:53:09;3.83;;;1.73;;
78555;SDS011;67851;51.354;7.744;2023-04-03T15:55:35;2.55;;;1.38;;
78555;SDS011;67851;51.354;7.744;2023-04-03T15:58:02;3.10;;;1.08;;
78555;SDS011;67851;51.354;7.744;2023-04-03T16:00:27;4.22;;;1.65;;
78555;SDS011;67851;51.354;7.744;2023-04-03T16:02:55;5.95;;;2.95;;
78555;SDS011;67851;51.354;7.744;2023-04-03T16:05:23;5.57;;;2.00;;
78555;SDS011;67851;51.354;7.744;2023-04-03T16:07:48;4.60;;;1.88;;
78555;SDS011;67851;51.354;7.744;2023-04-03T16:10:15;3.90;;;2.72;;
78555;SDS011;67851;51.354;7.744;2023-04-03T16:12:41;5.55;;;1.90;;
78555;SDS011;67851;51.354;7.744;2023-04-03T16:15:07;5.57;;;2.28;;
78555;SDS011;67851;51.354;7.744;2023-04-03T16:17:33;4.93;;;2.08;;
78555;SDS011;67851;51.354;7.744;2023-04-03T16:20:00;5.85;;;2.42;;
78555;SDS011;67851;51.354;7.744;2023-04-03T16:22:26;4.30;;;2.08;;
78555;SDS011;67851;51.354;7.744;2023-04-03T16:24:53;5.25;;;2.10;;